This is the latest recevied weather packets stored in our database for station/object SR2WXM. If no packets are shown the sender has not sent any weather packets the latest 1 day(s).
| Time | Temp. | Humidity | Pressure | Rain* | Wind** | Luminosity | Snow |
|---|---|---|---|---|---|---|---|
| 1778088605 | 16.67° C | 73% | 1003.7 hPa | 0 mm | - | - | - |
| 1778084103 | 20° C | 64% | 1003 hPa | 0 mm | - | - | - |
| 1778083204 | 20° C | 64% | 1003 hPa | 0 mm | - | - | - |
| 1778075102 | 18.89° C | 63% | 1003 hPa | 0 mm | - | - | - |
| 1778064303 | 17.78° C | 66% | 1003 hPa | 0 mm | - | - | - |
| 1778059803 | 16.67° C | 68% | 1003 hPa | 0 mm | - | - | - |
| 1778058903 | 17.78° C | 66% | 1002.7 hPa | 0 mm | - | - | - |
| 1778054403 | 13.89° C | 74% | 1003 hPa | 0 mm | - | - | - |
| 1778053502 | 13.89° C | 74% | 1002.3 hPa | 0 mm | - | - | - |
| 1778051703 | 15° C | 72% | 1002.3 hPa | 0 mm | - | - | - |
| 1778050804 | 13.89° C | 74% | 1002.3 hPa | 0 mm | - | - | - |
| 1778048103 | 12.78° C | 81% | 1002.3 hPa | 0 mm | - | - | - |
| 1778046304 | 11.67° C | 89% | 1002.3 hPa | 0 mm | - | - | - |
| 1778044503 | 10.56° C | 93% | 1002.3 hPa | 0 mm | - | - | - |
| 1778043603 | 10° C | 96% | 1003 hPa | 0 mm | - | - | - |
| 1778041804 | 10° C | 98% | 1003 hPa | 0 mm | - | - | - |
| 1778037302 | 8.89° C | 99% | 1003.3 hPa | 0 mm | - | - | - |
| 1778035502 | 8.89° C | 99% | 1003.7 hPa | 0 mm | - | - | - |
| 1778031902 | 10° C | 99% | 1004 hPa | 0 mm | - | - | - |
| 1778024703 | 10° C | 99% | 1005.4 hPa | 0 mm | - | - | - |
| 1778023802 | 10° C | 99% | 1005.7 hPa | 0 mm | - | - | - |
| 1778020202 | 10° C | 96% | 1005.7 hPa | 0 mm | - | - | - |
| 1778019302 | 10.56° C | 95% | 1005.7 hPa | 0 mm | - | - | - |
* Rain latest hour (hover to see other rain measurements)
** Current wind speed in m/s (hover to see current wind gust speed)